createdAt,value
2023-09-14T00:01:12.326Z,21.59
2023-09-14T00:03:42.221Z,21.61
2023-09-14T00:06:08.986Z,21.55
2023-09-14T00:08:36.022Z,21.47
2023-09-14T00:11:04.714Z,21.41
2023-09-14T00:13:32.053Z,21.32
2023-09-14T00:15:59.173Z,21.37
2023-09-14T00:18:26.011Z,21.36
2023-09-14T00:20:55.879Z,21.45
2023-09-14T00:23:22.712Z,21.48
2023-09-14T00:25:50.365Z,21.53
2023-09-14T00:28:17.423Z,21.54
2023-09-14T00:30:44.302Z,21.51
2023-09-14T00:33:11.086Z,21.46
2023-09-14T00:35:37.841Z,21.51
2023-09-14T00:38:04.781Z,21.50
2023-09-14T00:40:31.616Z,21.50
2023-09-14T00:42:58.432Z,21.49
2023-09-14T00:45:25.164Z,21.43
2023-09-14T00:48:03.235Z,21.48
2023-09-14T00:50:31.257Z,21.46
2023-09-14T00:53:12.722Z,21.47
2023-09-14T00:55:45.528Z,21.37
2023-09-14T00:58:15.877Z,21.34
2023-09-14T01:00:44.557Z,21.33
2023-09-14T01:03:11.556Z,21.42
2023-09-14T01:05:40.707Z,21.47
2023-09-14T01:08:07.906Z,21.49
2023-09-14T01:10:35.363Z,21.52
2023-09-14T01:13:02.211Z,21.50
2023-09-14T01:15:52.681Z,21.55
2023-09-14T01:18:49.018Z,21.59
2023-09-14T01:21:18.626Z,21.61
2023-09-14T01:24:10.006Z,21.59
2023-09-14T01:26:38.449Z,21.55
2023-09-14T01:29:05.413Z,21.56
2023-09-14T01:31:36.238Z,21.56
2023-09-14T01:34:03.357Z,21.60
2023-09-14T01:37:08.122Z,21.63
2023-09-14T01:39:37.051Z,21.61
2023-09-14T01:42:04.352Z,21.58
2023-09-14T01:44:31.975Z,21.53
2023-09-14T01:47:01.058Z,21.51
2023-09-14T01:49:28.283Z,21.49
2023-09-14T01:51:55.458Z,21.54
2023-09-14T01:54:22.271Z,21.53
2023-09-14T01:56:52.030Z,21.52
2023-09-14T01:59:18.796Z,21.56
2023-09-14T02:01:45.612Z,21.59
2023-09-14T02:04:12.450Z,21.61
2023-09-14T02:06:39.250Z,21.60
2023-09-14T02:09:06.045Z,21.62
2023-09-14T02:11:37.135Z,21.64
2023-09-14T02:14:05.379Z,21.66
2023-09-14T02:16:32.161Z,21.66
2023-09-14T02:18:59.011Z,21.53
2023-09-14T02:21:25.781Z,21.52
2023-09-14T02:23:59.731Z,21.48
2023-09-14T02:26:26.505Z,21.42
2023-09-14T02:28:53.289Z,21.43
2023-09-14T02:31:20.095Z,21.38
2023-09-14T02:33:47.212Z,21.34
2023-09-14T02:36:14.574Z,21.42
2023-09-14T02:38:41.270Z,21.44
2023-09-14T02:41:07.991Z,21.44
2023-09-14T02:43:34.679Z,21.44
2023-09-14T02:46:01.522Z,21.45
2023-09-14T02:48:28.367Z,21.48
2023-09-14T02:50:55.312Z,21.46
2023-09-14T02:53:22.077Z,21.43
2023-09-14T02:55:51.355Z,21.42
2023-09-14T02:58:18.196Z,21.44
2023-09-14T03:00:45.087Z,21.47
2023-09-14T03:03:11.990Z,21.49
2023-09-14T03:05:41.984Z,21.50
2023-09-14T03:08:08.698Z,21.55
2023-09-14T03:10:35.496Z,21.55
2023-09-14T03:13:05.062Z,21.53
2023-09-14T03:15:34.865Z,21.49
2023-09-14T03:18:02.018Z,21.50
2023-09-14T03:20:28.804Z,21.50
2023-09-14T03:22:55.554Z,21.52
2023-09-14T03:25:26.139Z,21.45
2023-09-14T03:27:52.900Z,21.51
2023-09-14T03:30:19.674Z,21.50
2023-09-14T03:32:46.376Z,21.50
2023-09-14T03:35:13.766Z,21.46
2023-09-14T03:37:43.214Z,21.54
2023-09-14T03:40:12.775Z,21.55
2023-09-14T03:42:39.552Z,21.50
2023-09-14T03:45:06.943Z,21.48
2023-09-14T03:47:33.924Z,21.48
2023-09-14T03:50:00.770Z,21.51
2023-09-14T03:52:27.587Z,21.52
2023-09-14T03:54:54.560Z,21.54
2023-09-14T03:57:21.364Z,21.55
2023-09-14T03:59:48.280Z,21.55
2023-09-14T04:02:15.302Z,21.54
2023-09-14T04:04:42.896Z,21.55
2023-09-14T04:07:09.756Z,21.53
2023-09-14T04:09:41.785Z,21.50
2023-09-14T04:12:11.685Z,21.44
2023-09-14T04:14:38.442Z,21.35
2023-09-14T04:17:05.156Z,21.32
2023-09-14T04:19:31.935Z,21.26
2023-09-14T04:22:00.617Z,21.24
2023-09-14T04:24:30.729Z,21.28
2023-09-14T04:26:57.406Z,21.24
2023-09-14T04:29:24.134Z,21.13
2023-09-14T04:31:53.479Z,20.99
2023-09-14T04:34:20.200Z,20.81
2023-09-14T04:36:46.916Z,20.78
2023-09-14T04:39:13.704Z,20.67
2023-09-14T04:41:40.463Z,20.48
2023-09-14T04:44:07.804Z,20.51
2023-09-14T04:46:35.839Z,20.48
2023-09-14T04:49:02.719Z,20.53
2023-09-14T04:51:29.464Z,20.54
2023-09-14T04:54:03.088Z,20.56
2023-09-14T04:56:32.661Z,20.51
2023-09-14T04:59:05.086Z,20.57
2023-09-14T05:01:32.387Z,20.43
2023-09-14T05:04:05.240Z,20.51
2023-09-14T05:06:37.222Z,20.57
2023-09-14T05:09:07.014Z,20.51
2023-09-14T05:11:34.850Z,20.64
2023-09-14T05:14:01.852Z,20.60
2023-09-14T05:16:28.778Z,20.54
2023-09-14T05:18:55.601Z,20.62
2023-09-14T05:21:22.447Z,20.69
2023-09-14T05:23:49.272Z,20.67
2023-09-14T05:26:19.039Z,20.76
2023-09-14T05:28:46.156Z,20.77
2023-09-14T05:31:28.200Z,20.83
2023-09-14T05:33:55.231Z,20.90
2023-09-14T05:36:27.690Z,20.91
2023-09-14T05:38:54.418Z,20.92
2023-09-14T05:41:21.256Z,21.03
2023-09-14T05:43:48.201Z,21.07
2023-09-14T05:46:15.531Z,21.04
2023-09-14T05:51:23.008Z,21.06
2023-09-14T05:53:49.658Z,21.09
2023-09-14T05:56:16.742Z,21.10
2023-09-14T05:58:44.280Z,21.07
2023-09-14T06:01:17.173Z,21.40
2023-09-14T06:04:33.964Z,21.55
2023-09-14T06:07:47.109Z,21.59
2023-09-14T06:10:14.285Z,21.70
2023-09-14T06:12:41.464Z,21.92
2023-09-14T06:15:08.415Z,21.95
2023-09-14T06:17:35.200Z,22.01
2023-09-14T06:20:04.210Z,22.05
2023-09-14T06:22:30.981Z,22.29
2023-09-14T06:24:57.843Z,22.15
2023-09-14T06:27:24.866Z,22.37
2023-09-14T06:29:51.576Z,22.42
2023-09-14T06:32:18.417Z,22.47
2023-09-14T06:34:46.446Z,22.50
2023-09-14T06:37:15.991Z,22.57
2023-09-14T06:39:42.888Z,22.44
2023-09-14T06:42:09.729Z,22.47
2023-09-14T06:44:36.466Z,22.51
2023-09-14T06:47:03.316Z,22.38
2023-09-14T06:49:38.007Z,22.47
2023-09-14T06:52:05.096Z,22.57
2023-09-14T06:54:32.183Z,22.66
2023-09-14T06:56:59.854Z,22.76
2023-09-14T06:59:26.793Z,22.76
2023-09-14T07:01:53.795Z,22.72
2023-09-14T07:04:21.135Z,22.97
2023-09-14T07:06:48.590Z,23.12
2023-09-14T07:09:18.394Z,23.29
2023-09-14T07:11:45.154Z,23.43
2023-09-14T07:14:14.662Z,23.50
2023-09-14T07:16:44.021Z,23.79
2023-09-14T07:19:13.220Z,23.97
2023-09-14T07:21:40.289Z,24.53
2023-09-14T07:24:07.950Z,24.46
2023-09-14T07:26:38.045Z,24.85
2023-09-14T07:29:08.678Z,25.04
2023-09-14T07:31:35.884Z,25.24
2023-09-14T07:34:03.545Z,25.38
2023-09-14T07:36:30.284Z,25.43
2023-09-14T07:38:57.069Z,25.39
2023-09-14T07:41:23.795Z,25.15
2023-09-14T07:43:53.396Z,25.51
2023-09-14T07:46:20.237Z,25.31
2023-09-14T07:48:46.973Z,25.58
2023-09-14T07:51:13.659Z,25.80
2023-09-14T07:53:40.971Z,25.92
2023-09-14T07:56:07.854Z,26.12
2023-09-14T07:58:34.535Z,25.75
2023-09-14T08:01:01.352Z,25.88
2023-09-14T08:03:28.831Z,25.89
2023-09-14T08:05:55.746Z,25.93
2023-09-14T08:08:22.463Z,25.59
2023-09-14T08:10:54.152Z,25.82
2023-09-14T08:13:21.568Z,25.52
2023-09-14T08:15:48.485Z,26.00
2023-09-14T08:18:15.428Z,26.21
2023-09-14T08:20:43.667Z,25.88
2023-09-14T08:23:12.078Z,26.17
2023-09-14T08:25:41.155Z,26.14
2023-09-14T08:28:07.869Z,25.75
2023-09-14T08:30:34.660Z,25.60
2023-09-14T08:33:01.482Z,25.79
2023-09-14T08:35:28.304Z,26.03
2023-09-14T08:37:55.815Z,26.34
2023-09-14T08:40:23.856Z,26.01
2023-09-14T08:42:53.149Z,26.19
2023-09-14T08:45:30.806Z,25.98
2023-09-14T08:47:59.570Z,25.75
2023-09-14T08:50:31.366Z,26.23
2023-09-14T08:52:58.947Z,26.17
2023-09-14T08:55:34.303Z,26.63
2023-09-14T08:58:02.312Z,27.08
2023-09-14T09:00:30.902Z,27.40
2023-09-14T09:02:58.358Z,27.89
2023-09-14T09:05:26.942Z,27.93
2023-09-14T09:07:55.144Z,27.75
2023-09-14T09:10:25.473Z,28.14
2023-09-14T09:13:02.965Z,28.37
2023-09-14T09:15:30.981Z,28.19
2023-09-14T09:18:08.984Z,28.61
2023-09-14T09:20:37.567Z,28.64
2023-09-14T09:23:06.601Z,28.27
2023-09-14T09:26:02.849Z,28.12
2023-09-14T09:28:32.722Z,28.49
2023-09-14T09:31:00.069Z,27.54
2023-09-14T09:33:42.207Z,27.61
2023-09-14T09:36:18.696Z,28.09
2023-09-14T09:38:47.000Z,28.32
2023-09-14T09:41:16.650Z,27.90
2023-09-14T09:43:43.332Z,27.98
2023-09-14T09:46:17.684Z,27.82
2023-09-14T09:48:47.899Z,28.16
2023-09-14T09:51:14.874Z,28.61
2023-09-14T09:54:20.890Z,28.33
2023-09-14T09:56:47.826Z,28.30
2023-09-14T09:59:16.540Z,27.96
2023-09-14T10:01:48.408Z,27.90
2023-09-14T10:04:18.775Z,27.89
2023-09-14T10:06:52.902Z,27.72
2023-09-14T10:09:19.767Z,27.57
2023-09-14T10:11:48.387Z,27.57
2023-09-14T10:14:19.678Z,27.30
2023-09-14T10:16:50.280Z,27.64
2023-09-14T10:19:19.229Z,27.50
2023-09-14T10:21:51.245Z,27.49
2023-09-14T10:24:19.855Z,27.66
2023-09-14T10:26:48.159Z,27.61
2023-09-14T10:29:15.002Z,27.13
2023-09-14T10:31:45.068Z,27.09
2023-09-14T10:34:15.395Z,26.91
2023-09-14T10:36:47.433Z,27.20
2023-09-14T10:39:14.314Z,27.53
2023-09-14T10:41:41.044Z,27.52
2023-09-14T10:44:08.509Z,27.39
2023-09-14T10:46:38.374Z,27.16
2023-09-14T10:49:05.553Z,27.24
2023-09-14T10:51:32.527Z,27.11
2023-09-14T10:54:02.139Z,27.04
2023-09-14T10:56:29.212Z,27.12
2023-09-14T10:58:55.925Z,27.09
2023-09-14T11:01:27.864Z,27.13
2023-09-14T11:04:14.223Z,26.90
2023-09-14T11:06:53.984Z,26.80
2023-09-14T11:09:23.249Z,26.82
2023-09-14T11:11:51.789Z,26.79
2023-09-14T11:14:20.271Z,26.84
2023-09-14T11:16:52.231Z,26.91
2023-09-14T11:22:18.259Z,27.36
2023-09-14T11:24:46.596Z,27.38
2023-09-14T11:27:20.891Z,27.21
2023-09-14T11:29:51.317Z,27.47
2023-09-14T11:32:30.544Z,27.46
2023-09-14T11:35:04.136Z,27.57
2023-09-14T11:37:35.053Z,27.42
2023-09-14T11:40:09.860Z,27.34
2023-09-14T11:43:16.988Z,27.35
2023-09-14T11:50:49.809Z,27.82
2023-09-14T11:53:18.796Z,27.97
2023-09-14T11:55:47.161Z,27.99
2023-09-14T11:58:15.117Z,28.03
2023-09-14T12:00:49.771Z,27.76
2023-09-14T12:03:16.971Z,27.70
2023-09-14T12:05:43.799Z,27.65
2023-09-14T12:08:18.436Z,27.17
2023-09-14T12:10:52.159Z,27.14
2023-09-14T12:13:19.512Z,27.04
2023-09-14T12:15:49.989Z,26.84
2023-09-14T12:18:17.224Z,26.82
2023-09-14T12:20:46.045Z,26.57
2023-09-14T12:23:14.359Z,26.59
2023-09-14T12:25:41.154Z,26.54
2023-09-14T12:28:12.384Z,26.48
2023-09-14T12:30:39.544Z,26.47
2023-09-14T12:33:08.034Z,26.34
2023-09-14T12:35:40.984Z,26.16
2023-09-14T12:38:08.059Z,26.18
2023-09-14T12:40:40.510Z,26.09
2023-09-14T12:43:11.490Z,25.75
2023-09-14T12:45:57.978Z,25.66
2023-09-14T12:48:28.142Z,25.66
2023-09-14T12:51:01.807Z,25.54
2023-09-14T12:53:37.494Z,25.41
2023-09-14T12:56:04.737Z,25.28
2023-09-14T12:58:31.544Z,24.37
2023-09-14T13:01:03.329Z,22.07
2023-09-14T13:03:30.188Z,21.62
2023-09-14T13:05:57.033Z,21.27
2023-09-14T13:08:27.391Z,21.06
2023-09-14T13:11:12.429Z,21.03
2023-09-14T13:13:45.623Z,20.62
2023-09-14T13:16:18.191Z,20.60
2023-09-14T13:18:48.084Z,20.45
2023-09-14T13:21:24.246Z,20.51
2023-09-14T13:23:50.980Z,20.67
2023-09-14T13:26:17.664Z,20.41
2023-09-14T13:28:44.956Z,20.54
2023-09-14T13:31:12.060Z,20.41
2023-09-14T13:33:38.886Z,20.51
2023-09-14T13:36:05.848Z,20.43
2023-09-14T13:38:32.680Z,20.48
2023-09-14T13:40:59.612Z,20.48
2023-09-14T13:43:26.281Z,20.51
2023-09-14T13:45:53.039Z,20.52
2023-09-14T13:48:20.245Z,20.67
2023-09-14T13:50:47.118Z,20.62
2023-09-14T13:53:15.670Z,20.72
2023-09-14T13:55:44.537Z,20.79
2023-09-14T13:58:11.232Z,20.72
2023-09-14T14:00:38.044Z,20.89
2023-09-14T14:03:11.715Z,20.87
2023-09-14T14:05:39.250Z,20.73
2023-09-14T14:08:07.800Z,20.56
2023-09-14T14:10:34.833Z,20.45
2023-09-14T14:13:01.686Z,20.30
2023-09-14T14:15:29.101Z,20.28
2023-09-14T14:17:55.855Z,20.45
2023-09-14T14:20:23.003Z,20.45
2023-09-14T14:22:49.899Z,20.49
2023-09-14T14:25:17.594Z,20.52
2023-09-14T14:27:45.292Z,20.46
2023-09-14T14:30:12.878Z,20.43
2023-09-14T14:32:40.608Z,20.55
2023-09-14T14:35:08.015Z,20.67
2023-09-14T14:37:34.852Z,20.69
2023-09-14T14:40:01.661Z,20.41
2023-09-14T14:42:31.635Z,20.45
2023-09-14T14:44:58.551Z,20.32
2023-09-14T14:47:27.847Z,20.33
2023-09-14T14:49:57.694Z,20.21
2023-09-14T14:52:24.407Z,19.94
2023-09-14T14:54:51.295Z,19.97
2023-09-14T14:57:18.071Z,19.91
2023-09-14T14:59:44.778Z,20.07
2023-09-14T15:02:11.674Z,20.12
2023-09-14T15:04:40.848Z,20.12
2023-09-14T15:07:10.694Z,20.03
2023-09-14T15:09:39.742Z,20.10
2023-09-14T15:12:07.345Z,20.12
2023-09-14T15:14:34.349Z,19.87
2023-09-14T15:17:06.691Z,20.10
2023-09-14T15:19:33.497Z,20.22
2023-09-14T15:22:01.063Z,20.17
2023-09-14T15:24:28.149Z,20.21
2023-09-14T15:26:54.932Z,20.21
2023-09-14T15:29:24.369Z,20.16
2023-09-14T15:31:51.686Z,20.36
2023-09-14T15:34:18.560Z,20.40
2023-09-14T15:36:45.446Z,20.41
2023-09-14T15:39:12.280Z,20.51
2023-09-14T15:41:39.851Z,20.54
2023-09-14T15:44:08.092Z,20.54
2023-09-14T15:46:34.968Z,20.52
2023-09-14T15:49:01.866Z,20.40
2023-09-14T15:51:28.917Z,20.36
2023-09-14T15:53:55.815Z,20.45
2023-09-14T15:56:24.352Z,20.41
2023-09-14T15:58:53.788Z,20.49
2023-09-14T16:01:23.143Z,20.57
2023-09-14T16:03:52.549Z,20.63
2023-09-14T16:06:21.920Z,20.68
2023-09-14T16:08:49.108Z,20.53
2023-09-14T16:11:18.500Z,20.62
2023-09-14T16:13:45.428Z,20.63
2023-09-14T16:16:12.272Z,20.71
2023-09-14T16:18:40.874Z,20.64
2023-09-14T16:21:07.571Z,20.65
2023-09-14T16:23:35.243Z,20.67
2023-09-14T16:26:04.152Z,20.62
2023-09-14T16:28:30.809Z,20.67
2023-09-14T16:31:02.013Z,20.66
2023-09-14T16:33:29.272Z,20.63
2023-09-14T16:35:59.441Z,20.64
2023-09-14T16:38:26.119Z,20.62
2023-09-14T16:40:53.304Z,20.64
2023-09-14T16:43:20.667Z,20.65
2023-09-14T16:45:49.193Z,20.62
2023-09-14T16:48:16.411Z,20.65
2023-09-14T16:50:43.208Z,20.67
2023-09-14T16:53:10.120Z,20.63
2023-09-14T16:55:37.993Z,20.63
2023-09-14T16:58:05.056Z,20.69
2023-09-14T17:00:35.190Z,20.67
2023-09-14T17:03:02.040Z,20.73
2023-09-14T17:05:29.138Z,20.62
2023-09-14T17:07:56.255Z,20.59
2023-09-14T17:10:25.642Z,20.63
2023-09-14T17:12:55.660Z,20.71
2023-09-14T17:15:22.717Z,20.70
2023-09-14T17:17:52.422Z,20.71
2023-09-14T17:20:20.000Z,20.75
2023-09-14T17:22:46.699Z,20.73
2023-09-14T17:25:16.275Z,20.78
2023-09-14T17:27:43.077Z,20.82
2023-09-14T17:30:10.305Z,20.82
2023-09-14T17:32:37.212Z,20.82
2023-09-14T17:35:04.452Z,20.75
2023-09-14T17:37:31.613Z,20.78
2023-09-14T17:39:58.451Z,20.81
2023-09-14T17:42:25.213Z,20.76
2023-09-14T17:44:58.569Z,20.71
2023-09-14T17:47:25.309Z,20.72
2023-09-14T17:49:51.987Z,20.64
2023-09-14T17:52:18.775Z,20.64
2023-09-14T17:54:51.023Z,20.61
2023-09-14T17:57:17.821Z,20.57
2023-09-14T17:59:46.607Z,20.60
2023-09-14T18:02:13.709Z,20.58
2023-09-14T18:04:43.409Z,20.55
2023-09-14T18:07:21.074Z,20.55
2023-09-14T18:09:48.051Z,20.56
2023-09-14T18:12:14.851Z,20.49
2023-09-14T18:14:41.803Z,20.47
2023-09-14T18:17:10.641Z,20.47
2023-09-14T18:19:37.385Z,20.43
2023-09-14T18:22:07.213Z,20.38
2023-09-14T18:24:34.149Z,20.41
2023-09-14T18:27:04.687Z,20.41
2023-09-14T18:29:32.211Z,20.27
2023-09-14T18:31:58.939Z,20.38
2023-09-14T18:34:25.729Z,20.36
2023-09-14T18:36:52.721Z,20.29
2023-09-14T18:39:19.539Z,20.11
2023-09-14T18:41:48.080Z,20.20
2023-09-14T18:44:17.402Z,20.27
2023-09-14T18:46:44.706Z,20.31
2023-09-14T18:49:11.775Z,20.30
2023-09-14T18:51:41.206Z,20.30
2023-09-14T18:54:08.156Z,20.29
2023-09-14T18:56:34.943Z,20.25
2023-09-14T19:01:31.955Z,20.32
2023-09-14T19:04:01.718Z,20.29
2023-09-14T19:06:31.380Z,20.28
2023-09-14T19:08:58.111Z,20.31
2023-09-14T19:11:25.128Z,20.25
2023-09-14T19:13:51.806Z,20.22
2023-09-14T19:16:18.629Z,20.26
2023-09-14T19:18:47.623Z,20.30
2023-09-14T19:21:14.700Z,20.27
2023-09-14T19:23:41.505Z,20.28
2023-09-14T19:26:08.417Z,20.26
2023-09-14T19:28:35.285Z,20.21
2023-09-14T19:31:02.060Z,20.22
2023-09-14T19:33:28.861Z,20.12
2023-09-14T19:35:55.696Z,20.20
2023-09-14T19:38:23.206Z,20.21
2023-09-14T19:40:50.292Z,20.20
2023-09-14T19:43:16.989Z,20.24
2023-09-14T19:45:46.646Z,20.22
2023-09-14T19:48:13.483Z,20.24
2023-09-14T19:50:40.424Z,20.22
2023-09-14T19:53:07.230Z,20.20
2023-09-14T19:55:34.015Z,20.15
2023-09-14T19:58:00.862Z,20.13
2023-09-14T20:00:27.677Z,20.14
2023-09-14T20:02:54.432Z,20.08
2023-09-14T20:07:48.287Z,20.10
2023-09-14T20:10:15.153Z,20.13
2023-09-14T20:12:43.178Z,20.13
2023-09-14T20:15:10.844Z,20.13
2023-09-14T20:17:37.577Z,20.12
2023-09-14T20:20:04.906Z,20.17
2023-09-14T20:22:31.602Z,20.10
2023-09-14T20:24:58.296Z,20.12
2023-09-14T20:27:28.477Z,19.96
2023-09-14T20:29:55.365Z,20.08
2023-09-14T20:32:22.322Z,19.98
2023-09-14T20:34:49.125Z,20.00
2023-09-14T20:37:15.972Z,19.95
2023-09-14T20:39:42.698Z,19.98
2023-09-14T20:42:09.636Z,20.03
2023-09-14T20:44:36.506Z,20.05
2023-09-14T20:47:03.308Z,20.06
2023-09-14T20:49:30.068Z,20.02
2023-09-14T20:51:56.829Z,20.05
2023-09-14T20:54:23.636Z,20.10
2023-09-14T20:56:50.336Z,20.04
2023-09-14T20:59:18.705Z,20.02
2023-09-14T21:01:46.240Z,20.03
2023-09-14T21:04:13.273Z,20.05
2023-09-14T21:06:40.656Z,20.03
2023-09-14T21:09:07.738Z,20.03
2023-09-14T21:11:34.884Z,20.01
2023-09-14T21:14:01.651Z,19.95
2023-09-14T21:16:28.421Z,20.00
2023-09-14T21:18:55.155Z,20.01
2023-09-14T21:21:23.054Z,20.01
2023-09-14T21:23:49.745Z,19.96
2023-09-14T21:26:17.139Z,19.94
2023-09-14T21:28:44.216Z,20.02
2023-09-14T21:31:10.943Z,20.01
2023-09-14T21:33:37.856Z,20.02
2023-09-14T21:36:04.844Z,20.00
2023-09-14T21:38:31.635Z,19.96
2023-09-14T21:41:02.946Z,19.97
2023-09-14T21:43:30.927Z,19.97
2023-09-14T21:45:57.585Z,19.98
2023-09-14T21:48:25.330Z,20.03
2023-09-14T21:50:53.294Z,20.04
2023-09-14T21:53:22.060Z,20.04
2023-09-14T21:55:49.209Z,20.01
2023-09-14T21:58:15.982Z,19.91
2023-09-14T22:00:42.768Z,19.99
2023-09-14T22:03:09.629Z,19.94
2023-09-14T22:05:36.448Z,19.77
2023-09-14T22:08:03.374Z,19.80
2023-09-14T22:10:30.036Z,19.79
2023-09-14T22:12:59.279Z,19.76
2023-09-14T22:15:26.148Z,19.64
2023-09-14T22:17:53.650Z,19.83
2023-09-14T22:20:20.532Z,19.72
2023-09-14T22:22:50.381Z,19.79
2023-09-14T22:25:17.491Z,19.59
2023-09-14T22:27:44.543Z,19.68
2023-09-14T22:30:11.641Z,19.59
2023-09-14T22:32:38.394Z,19.61
2023-09-14T22:35:06.278Z,19.59
2023-09-14T22:37:36.239Z,19.68
2023-09-14T22:40:07.789Z,19.69
2023-09-14T22:42:34.767Z,19.50
2023-09-14T22:45:01.994Z,19.64
2023-09-14T22:47:28.724Z,19.68
2023-09-14T22:49:55.910Z,19.75
2023-09-14T22:52:23.618Z,19.68
2023-09-14T22:54:50.570Z,19.59
2023-09-14T22:57:17.280Z,19.68
2023-09-14T22:59:53.445Z,19.71
2023-09-14T23:02:20.445Z,19.67
2023-09-14T23:04:47.431Z,19.58
2023-09-14T23:07:15.275Z,19.69
2023-09-14T23:09:43.746Z,19.63
2023-09-14T23:12:10.578Z,19.67
2023-09-14T23:14:37.296Z,19.66
2023-09-14T23:17:04.245Z,19.62
2023-09-14T23:19:33.473Z,19.61
2023-09-14T23:22:00.743Z,19.63
2023-09-14T23:24:27.576Z,19.65
2023-09-14T23:26:54.278Z,19.58
2023-09-14T23:29:20.968Z,19.60
2023-09-14T23:31:49.667Z,19.65
2023-09-14T23:34:18.283Z,19.59
2023-09-14T23:36:47.490Z,19.63
2023-09-14T23:39:15.559Z,19.59
2023-09-14T23:41:43.020Z,19.58
2023-09-14T23:44:09.915Z,19.53
2023-09-14T23:46:36.725Z,19.48
2023-09-14T23:49:03.896Z,19.53
2023-09-14T23:51:30.889Z,19.55
2023-09-14T23:53:57.598Z,19.62
2023-09-14T23:56:25.291Z,19.62
2023-09-14T23:58:51.966Z,19.65
